Charlotte — SFB2936 — position and weather

sailwx.info

Track history (hours):
 
Tides and Currents Weather Stations Pressure Air Temp Water Temp Dewpoint Dewpoint Depression Visibility Wind Speed Wind Dir Waves Ship Positions

Charlotte

Last reported at 2017-Jan-22 09:33 UTC. Time now 2017-Jan-22 10:18 UTC.
Position N 55°56' E 012°46'.

Length 11 m; draft 2 m.

Type: Fishing. MMSI: 265536200.

Date/timePositionNaut miles runAvg speedWind from/ knotsBaromVisibWave heightAir tempDewpointWater temp
2017-Jan-22 09:33N 55°56' E 012°46'2 1.8
2017-Jan-22 08:33N 55°56' E 012°43'1 0.9
2017-Jan-22 07:34N 55°56' E 012°44'1 0.1
2017-Jan-21 12:33N 55°56' E 012°46'2 0.8
2017-Jan-21 10:33N 55°55' E 012°44'0 0.2
2017-Jan-21 09:33N 55°56' E 012°44'0 0.3
2017-Jan-21 08:33N 55°56' E 012°44'0 0.3
2017-Jan-21 07:33N 55°56' E 012°44'2 1.5
2017-Jan-21 06:33N 55°56' E 012°46'0 0.0
2017-Jan-21 05:33N 55°56' E 012°46'0 0.0
2017-Jan-21 04:33N 55°56' E 012°46'0 0.0
2017-Jan-21 03:33N 55°56' E 012°46'0 0.0
2017-Jan-21 02:33N 55°56' E 012°46'0 0.0
2017-Jan-21 01:33N 55°56' E 012°46'0 0.0
2017-Jan-21 00:33N 55°56' E 012°46'0 0.0
2017-Jan-20 23:33N 55°56' E 012°46'0 0.0
2017-Jan-20 22:33N 55°56' E 012°46'0 0.0
2017-Jan-20 21:33N 55°56' E 012°46'0 0.0
2017-Jan-20 20:33N 55°56' E 012°46'0 0.0
2017-Jan-20 19:33N 55°56' E 012°46'0 0.0
2017-Jan-20 18:33N 55°56' E 012°46'0 0.0
2017-Jan-20 17:33N 55°56' E 012°46'0 0.0
2017-Jan-20 16:33N 55°56' E 012°46'0 0.0
2017-Jan-20 15:33N 55°56' E 012°46'0 0.2
2017-Jan-20 14:33N 55°56' E 012°46'1 1.2
2017-Jan-20 13:33N 55°55' E 012°45'0 0.5
2017-Jan-20 12:33N 55°56' E 012°45'0 0.1
2017-Jan-20 11:34N 55°56' E 012°45'0 0.2
2017-Jan-20 10:34N 55°56' E 012°45'0 0.1
2017-Jan-20 09:34N 55°56' E 012°45'0 0.1
2017-Jan-20 08:34N 55°56' E 012°44'1 0.6
2017-Jan-20 07:33N 55°56' E 012°44'  
2017-Jan-17 06:31N 55°56' E 012°46'0 0.0
2017-Jan-17 05:33N 55°56' E 012°46'0 0.0
2017-Jan-17 04:33N 55°56' E 012°46'0 0.0
2017-Jan-17 03:33N 55°56' E 012°46'0 0.0
2017-Jan-17 02:33N 55°56' E 012°46'0 0.0
2017-Jan-17 01:33N 55°56' E 012°46'0 0.0
2017-Jan-17 00:33N 55°56' E 012°46'0 0.0
2017-Jan-16 23:33N 55°56' E 012°46'0 0.0
2017-Jan-16 22:33N 55°56' E 012°46'0 0.0
2017-Jan-16 21:33N 55°56' E 012°46'0 0.0
2017-Jan-16 20:33N 55°56' E 012°46'0 0.0
2017-Jan-16 19:33N 55°56' E 012°46'0 0.0
2017-Jan-16 18:33N 55°56' E 012°46'0 0.0
2017-Jan-16 17:33N 55°56' E 012°46'0 0.0
2017-Jan-16 16:33N 55°56' E 012°46'0 0.0
2017-Jan-16 15:33N 55°56' E 012°46'0 0.0
2017-Jan-16 14:33N 55°56' E 012°46'0 0.1
2017-Jan-16 13:33N 55°56' E 012°46'1 0.8
2017-Jan-16 12:33N 55°56' E 012°45'0 0.2
2017-Jan-16 11:33N 55°56' E 012°45'0 0.1
2017-Jan-16 10:33N 55°56' E 012°45'1 0.8
2017-Jan-16 09:33N 55°56' E 012°43'0 0.3
2017-Jan-16 08:33N 55°56' E 012°44'0 0.2
2017-Jan-16 07:33N 55°56' E 012°44'2 1.6
2017-Jan-16 06:33N 55°56' E 012°46'0 0.0
2017-Jan-16 05:33N 55°56' E 012°46'0 0.0
2017-Jan-16 04:33N 55°56' E 012°46'0 0.0
2017-Jan-16 03:33N 55°56' E 012°46'0 0.0
2017-Jan-16 02:33N 55°56' E 012°46'0 0.0
2017-Jan-16 01:34N 55°56' E 012°46'0 0.0
2017-Jan-16 00:33N 55°56' E 012°46'0 0.0
2017-Jan-15 23:33N 55°56' E 012°46'0 0.0
2017-Jan-15 22:33N 55°56' E 012°46'0 0.0
2017-Jan-15 21:33N 55°56' E 012°46'0 0.0
2017-Jan-15 20:33N 55°56' E 012°46'0 0.0
2017-Jan-15 19:33N 55°56' E 012°46'0 0.0
2017-Jan-15 18:33N 55°56' E 012°46'0 0.0
2017-Jan-15 17:33N 55°56' E 012°46'0 0.0
2017-Jan-15 16:33N 55°56' E 012°46'0 0.0
2017-Jan-15 15:33N 55°56' E 012°46'0 0.0
2017-Jan-15 14:34N 55°56' E 012°46'1 0.6
2017-Jan-15 13:33N 55°56' E 012°45'1 0.7
2017-Jan-15 12:33N 55°55' E 012°45'0 0.2
2017-Jan-15 11:33N 55°56' E 012°45'0 0.1
2017-Jan-15 10:33N 55°56' E 012°45'0 0.4
2017-Jan-15 09:33N 55°56' E 012°44'0 0.2
2017-Jan-15 08:33N 55°56' E 012°44'0 0.3
2017-Jan-15 07:33N 55°56' E 012°45'1 1.0
2017-Jan-15 06:33N 55°56' E 012°46'0 0.0
2017-Jan-15 05:33N 55°56' E 012°46'0 0.0
2017-Jan-15 04:34N 55°56' E 012°46'0 0.0
2017-Jan-15 03:33N 55°56' E 012°46'0 0.0
2017-Jan-15 02:33N 55°56' E 012°46'0 0.0
2017-Jan-15 01:33N 55°56' E 012°46'0 0.0
2017-Jan-15 00:33N 55°56' E 012°46'0 0.0
2017-Jan-14 23:33N 55°56' E 012°46'0 0.0
2017-Jan-14 22:34N 55°56' E 012°46'0 0.0
2017-Jan-14 21:33N 55°56' E 012°46'0 0.0
2017-Jan-14 20:33N 55°56' E 012°46'0 0.0
2017-Jan-14 19:33N 55°56' E 012°46'0 0.0
2017-Jan-14 18:33N 55°56' E 012°46'0 0.0
2017-Jan-14 17:33N 55°56' E 012°46'0 0.0
2017-Jan-14 16:33N 55°56' E 012°46'0 0.0
2017-Jan-14 15:34N 55°56' E 012°46'0 0.0
2017-Jan-14 14:33N 55°56' E 012°46'0 0.4
2017-Jan-14 13:33N 55°56' E 012°46'1 0.9
2017-Jan-14 12:33N 55°55' E 012°45'0 0.3
2017-Jan-14 11:33N 55°55' E 012°45'0 0.2
2017-Jan-14 10:33N 55°56' E 012°45'0 0.3
2017-Jan-14 09:33N 55°56' E 012°44'1 0.6
2017-Jan-14 08:33N 55°56' E 012°44'2 1.5
2017-Jan-14 07:34N 55°56' E 012°46'0 0.0
2017-Jan-14 06:33N 55°56' E 012°46'0 0.0
2017-Jan-14 05:33N 55°56' E 012°46'0 0.0
2017-Jan-14 04:33N 55°56' E 012°46'0 0.0
2017-Jan-14 03:33N 55°56' E 012°46'0 0.0
2017-Jan-13 23:33N 55°56' E 012°46'0 0.0
2017-Jan-13 22:33N 55°56' E 012°46'0 0.0
2017-Jan-13 21:33N 55°56' E 012°46'0 0.0
2017-Jan-13 20:33N 55°56' E 012°46'0 0.0
2017-Jan-13 19:33N 55°56' E 012°46'0 0.0
2017-Jan-13 18:33N 55°56' E 012°46'0 0.0
2017-Jan-13 17:33N 55°56' E 012°46'0 0.0
2017-Jan-13 16:33N 55°56' E 012°46'0 0.0
2017-Jan-13 15:34N 55°56' E 012°46'0 0.0
2017-Jan-13 14:33N 55°56' E 012°46'0 0.0
2017-Jan-13 13:33N 55°56' E 012°46'0 0.0
2017-Jan-13 12:34N 55°56' E 012°46'0 0.0
2017-Jan-13 11:33N 55°56' E 012°46'1 1.0
2017-Jan-13 10:33N 55°56' E 012°45'1 0.6
2017-Jan-13 09:33N 55°56' E 012°44'  
Track history (hours):
 
Tides and Currents Weather Stations Pressure Air Temp Water Temp Dewpoint Dewpoint Depression Visibility Wind Speed Wind Dir Waves Ship Positions

Charlotte

Last reported at 2017-Jan-22 09:33 UTC. Time now 2017-Jan-22 10:18 UTC.
Position N 55°56' E 012°46'.

Length 11 m; draft 2 m.

Type: Fishing. MMSI: 265536200.

Date/timePositionNaut miles runAvg speedWind from/ knotsBaromVisibWave heightAir tempDewpointWater temp
2017-Jan-22 09:33N 55°56' E 012°46'2 1.8
2017-Jan-22 08:33N 55°56' E 012°43'1 0.9
2017-Jan-22 07:34N 55°56' E 012°44'1 0.1
2017-Jan-21 12:33N 55°56' E 012°46'2 0.8
2017-Jan-21 10:33N 55°55' E 012°44'0 0.2
2017-Jan-21 09:33N 55°56' E 012°44'0 0.3
2017-Jan-21 08:33N 55°56' E 012°44'0 0.3
2017-Jan-21 07:33N 55°56' E 012°44'2 1.5
2017-Jan-21 06:33N 55°56' E 012°46'0 0.0
2017-Jan-21 05:33N 55°56' E 012°46'0 0.0
2017-Jan-21 04:33N 55°56' E 012°46'0 0.0
2017-Jan-21 03:33N 55°56' E 012°46'0 0.0
2017-Jan-21 02:33N 55°56' E 012°46'0 0.0
2017-Jan-21 01:33N 55°56' E 012°46'0 0.0
2017-Jan-21 00:33N 55°56' E 012°46'0 0.0
2017-Jan-20 23:33N 55°56' E 012°46'0 0.0
2017-Jan-20 22:33N 55°56' E 012°46'0 0.0
2017-Jan-20 21:33N 55°56' E 012°46'0 0.0
2017-Jan-20 20:33N 55°56' E 012°46'0 0.0
2017-Jan-20 19:33N 55°56' E 012°46'0 0.0
2017-Jan-20 18:33N 55°56' E 012°46'0 0.0
2017-Jan-20 17:33N 55°56' E 012°46'0 0.0
2017-Jan-20 16:33N 55°56' E 012°46'0 0.0
2017-Jan-20 15:33N 55°56' E 012°46'0 0.2
2017-Jan-20 14:33N 55°56' E 012°46'1 1.2
2017-Jan-20 13:33N 55°55' E 012°45'0 0.5
2017-Jan-20 12:33N 55°56' E 012°45'0 0.1
2017-Jan-20 11:34N 55°56' E 012°45'0 0.2
2017-Jan-20 10:34N 55°56' E 012°45'0 0.1
2017-Jan-20 09:34N 55°56' E 012°45'0 0.1
2017-Jan-20 08:34N 55°56' E 012°44'1 0.6
2017-Jan-20 07:33N 55°56' E 012°44'  
2017-Jan-17 06:31N 55°56' E 012°46'0 0.0
2017-Jan-17 05:33N 55°56' E 012°46'0 0.0
2017-Jan-17 04:33N 55°56' E 012°46'0 0.0
2017-Jan-17 03:33N 55°56' E 012°46'0 0.0
2017-Jan-17 02:33N 55°56' E 012°46'0 0.0
2017-Jan-17 01:33N 55°56' E 012°46'0 0.0
2017-Jan-17 00:33N 55°56' E 012°46'0 0.0
2017-Jan-16 23:33N 55°56' E 012°46'0 0.0
2017-Jan-16 22:33N 55°56' E 012°46'0 0.0
2017-Jan-16 21:33N 55°56' E 012°46'0 0.0
2017-Jan-16 20:33N 55°56' E 012°46'0 0.0
2017-Jan-16 19:33N 55°56' E 012°46'0 0.0
2017-Jan-16 18:33N 55°56' E 012°46'0 0.0
2017-Jan-16 17:33N 55°56' E 012°46'0 0.0
2017-Jan-16 16:33N 55°56' E 012°46'0 0.0
2017-Jan-16 15:33N 55°56' E 012°46'0 0.0
2017-Jan-16 14:33N 55°56' E 012°46'0 0.1
2017-Jan-16 13:33N 55°56' E 012°46'1 0.8
2017-Jan-16 12:33N 55°56' E 012°45'0 0.2
2017-Jan-16 11:33N 55°56' E 012°45'0 0.1
2017-Jan-16 10:33N 55°56' E 012°45'1 0.8
2017-Jan-16 09:33N 55°56' E 012°43'0 0.3
2017-Jan-16 08:33N 55°56' E 012°44'0 0.2
2017-Jan-16 07:33N 55°56' E 012°44'2 1.6
2017-Jan-16 06:33N 55°56' E 012°46'0 0.0
2017-Jan-16 05:33N 55°56' E 012°46'0 0.0
2017-Jan-16 04:33N 55°56' E 012°46'0 0.0
2017-Jan-16 03:33N 55°56' E 012°46'0 0.0
2017-Jan-16 02:33N 55°56' E 012°46'0 0.0
2017-Jan-16 01:34N 55°56' E 012°46'0 0.0
2017-Jan-16 00:33N 55°56' E 012°46'0 0.0
2017-Jan-15 23:33N 55°56' E 012°46'0 0.0
2017-Jan-15 22:33N 55°56' E 012°46'0 0.0
2017-Jan-15 21:33N 55°56' E 012°46'0 0.0
2017-Jan-15 20:33N 55°56' E 012°46'0 0.0
2017-Jan-15 19:33N 55°56' E 012°46'0 0.0
2017-Jan-15 18:33N 55°56' E 012°46'0 0.0
2017-Jan-15 17:33N 55°56' E 012°46'0 0.0
2017-Jan-15 16:33N 55°56' E 012°46'0 0.0
2017-Jan-15 15:33N 55°56' E 012°46'0 0.0
2017-Jan-15 14:34N 55°56' E 012°46'1 0.6
2017-Jan-15 13:33N 55°56' E 012°45'1 0.7
2017-Jan-15 12:33N 55°55' E 012°45'0 0.2
2017-Jan-15 11:33N 55°56' E 012°45'0 0.1
2017-Jan-15 10:33N 55°56' E 012°45'0 0.4
2017-Jan-15 09:33N 55°56' E 012°44'0 0.2
2017-Jan-15 08:33N 55°56' E 012°44'0 0.3
2017-Jan-15 07:33N 55°56' E 012°45'1 1.0
2017-Jan-15 06:33N 55°56' E 012°46'0 0.0
2017-Jan-15 05:33N 55°56' E 012°46'0 0.0
2017-Jan-15 04:34N 55°56' E 012°46'0 0.0
2017-Jan-15 03:33N 55°56' E 012°46'0 0.0
2017-Jan-15 02:33N 55°56' E 012°46'0 0.0
2017-Jan-15 01:33N 55°56' E 012°46'0 0.0
2017-Jan-15 00:33N 55°56' E 012°46'0 0.0
2017-Jan-14 23:33N 55°56' E 012°46'0 0.0
2017-Jan-14 22:34N 55°56' E 012°46'0 0.0
2017-Jan-14 21:33N 55°56' E 012°46'0 0.0
2017-Jan-14 20:33N 55°56' E 012°46'0 0.0
2017-Jan-14 19:33N 55°56' E 012°46'0 0.0
2017-Jan-14 18:33N 55°56' E 012°46'0 0.0
2017-Jan-14 17:33N 55°56' E 012°46'0 0.0
2017-Jan-14 16:33N 55°56' E 012°46'0 0.0
2017-Jan-14 15:34N 55°56' E 012°46'0 0.0
2017-Jan-14 14:33N 55°56' E 012°46'0 0.4
2017-Jan-14 13:33N 55°56' E 012°46'1 0.9
2017-Jan-14 12:33N 55°55' E 012°45'0 0.3
2017-Jan-14 11:33N 55°55' E 012°45'0 0.2
2017-Jan-14 10:33N 55°56' E 012°45'0 0.3
2017-Jan-14 09:33N 55°56' E 012°44'1 0.6
2017-Jan-14 08:33N 55°56' E 012°44'2 1.5
2017-Jan-14 07:34N 55°56' E 012°46'0 0.0
2017-Jan-14 06:33N 55°56' E 012°46'0 0.0
2017-Jan-14 05:33N 55°56' E 012°46'0 0.0
2017-Jan-14 04:33N 55°56' E 012°46'0 0.0
2017-Jan-14 03:33N 55°56' E 012°46'0 0.0
2017-Jan-13 23:33N 55°56' E 012°46'0 0.0
2017-Jan-13 22:33N 55°56' E 012°46'0 0.0
2017-Jan-13 21:33N 55°56' E 012°46'0 0.0
2017-Jan-13 20:33N 55°56' E 012°46'0 0.0
2017-Jan-13 19:33N 55°56' E 012°46'0 0.0
2017-Jan-13 18:33N 55°56' E 012°46'0 0.0
2017-Jan-13 17:33N 55°56' E 012°46'0 0.0
2017-Jan-13 16:33N 55°56' E 012°46'0 0.0
2017-Jan-13 15:34N 55°56' E 012°46'0 0.0
2017-Jan-13 14:33N 55°56' E 012°46'0 0.0
2017-Jan-13 13:33N 55°56' E 012°46'0 0.0
2017-Jan-13 12:34N 55°56' E 012°46'0 0.0
2017-Jan-13 11:33N 55°56' E 012°46'1 1.0
2017-Jan-13 10:33N 55°56' E 012°45'1 0.6
2017-Jan-13 09:33N 55°56' E 012°44'  

Dump ship's entire track history